Latest Coastal Weather Observations for Robe Airport

IDV60701

Issued at 9:22 pm EST Tuesday 4 August 2020 (issued every 10 minutes, with the page automatically refreshed every 10 minutes)

About coastal observations | Map of coastal stations | Coastal observations for VIC | Marine services | Other Formats
Station Details ID: 026105 Name: ROBE AIRFIELD Lat: -37.18 Lon: 139.81 Height: 3.0 m
Data from the previous 72 hours. | See also: Recent months at Robe Airport
Date/Time
EST
Wind Sea
Height
m
Swell Vis
km
Cloud Weather Temp
°C
Press
hPa
Rain since
9am
mm
Dir  Spd
kts
Gust
kts
Height
m
Period
s
Dir
04/09:00pm SSE 5 7 - - - - - - - 8.1 1021.2 0.4
04/08:30pm SSW 4 5 - - - - - - - 7.7 1021.0 0.4
04/08:00pm S 9 13 - - - - - - - 9.1 1020.9 0.4
04/07:30pm S 6 10 - - - - - - - 8.6 1020.6 0.4
04/07:00pm S 9 15 - - - - - - - 8.9 1020.4 0.4
04/06:30pm S 8 11 - - - - - - - 8.4 1020.3 0.4
04/06:00pm S 10 14 - - - - - - - 9.1 1020.1 0.4
04/05:30pm S 11 16 - - - - - - - 9.9 1020.1 0.4
04/05:00pm SSW 11 15 - - - - - - - 10.4 1019.8 0.4
04/04:30pm S 12 18 - - - - - - - 10.6 1019.6 0.4
04/04:00pm S 12 18 - - - - - - - 11.1 1019.4 0.4
04/03:30pm S 16 20 - - - - - - - 11.8 1019.3 0.4
04/03:00pm S 14 19 - - - - - - - 11.1 1019.2 0.4
04/02:30pm S 15 20 - - - - - - - 12.1 1019.1 0.4
04/02:00pm S 12 17 - - - - - - - 11.5 1019.1 0.4
04/01:30pm SW 15 28 - - - - - - - 8.5 1019.7 0.4
04/01:20pm SW 15 25 - - - - - - - 9.8 1019.7 0.4
04/01:00pm S 12 16 - - - - - - - 12.6 1019.5 0.2
04/12:30pm S 14 19 - - - - - - - 12.5 1019.7 0.2
04/12:00pm S 18 24 - - - - - - - 10.1 1020.0 0.2
04/11:50am S 16 26 - - - - - - - 11.6 1019.8 0.2
04/11:30am S 14 20 - - - - - - - 11.4 1019.8 0.2
04/11:00am SSW 8 12 - - - - - - - 11.3 1019.8 0.2
04/10:30am SSW 11 15 - - - - - - - 11.5 1019.8 0.0
04/10:00am SSW 13 18 - - - - - - - 10.5 1019.6 0.0
04/09:30am SSW 15 19 - - - - - - - 9.8 1019.4 0.4
04/09:00am SSW 14 21 - - - - - - - 9.4 1019.2 0.4
04/08:30am SSW 13 20 - - - - - - - 9.1 1018.7 0.4
04/08:00am SSW 13 19 - - - - - - - 8.9 1018.5 0.4
04/07:30am SSW 13 19 - - - - - - - 8.7 1018.2 0.4
04/07:00am SSW 15 21 - - - - - - - 9.2 1017.8 0.4
04/06:30am SSW 9 15 - - - - - - - 8.8 1017.5 0.4
04/06:00am SSW 12 19 - - - - - - - 8.0 1017.4 0.4
04/05:30am SSW 13 22 - - - - - - - 8.7 1017.5 0.4
04/05:00am SSW 14 20 - - - - - - - 8.5 1017.4 0.4
04/04:30am SSW 12 18 - - - - - - - 7.7 1017.3 0.4
04/04:00am SSW 14 19 - - - - - - - 8.3 1017.1 0.4
04/03:30am SSW 13 18 - - - - - - - 7.9 1017.3 0.4
04/03:00am SSW 13 19 - - - - - - - 8.0 1017.4 0.4
04/02:30am SSW 16 23 - - - - - - - 8.4 1017.3 0.4
04/02:00am SSW 16 22 - - - - - - - 8.2 1017.3 0.4
04/01:30am SSW 16 23 - - - - - - - 8.5 1017.2 0.4
04/01:00am SW 14 21 - - - - - - - 8.7 1017.1 0.4
04/12:30am SSW 16 22 - - - - - - Recent precip. 8.5 1017.0 0.4
04/12:00am SW 15 24 - - - - - - - 8.5 1017.0 0.4
 
Date/Time
EST
Wind Sea
Height
m
Swell Vis
km
Cloud Weather Temp
°C
Press
hPa
Rain since
9am
mm
Dir  Spd
kts
Gust
kts
Height
m
Period
s
Dir
03/11:30pm SSW 17 25 - - - - - - - 8.7 1016.7 0.2
03/11:24pm SSW 15 25 - - - - - - - 9.4 1016.7 0.2
03/11:00pm SW 15 24 - - - - - - - 8.6 1016.6 0.2
03/10:30pm SW 12 22 - - - - - - - 9.8 1016.4 0.2
03/10:00pm WSW 13 21 - - - - - - - 9.1 1016.3 0.2
03/09:30pm WSW 11 23 - - - - - - - 9.3 1016.3 0.0
03/09:00pm WSW 12 25 - - - - - - - 9.6 1016.3 0.0
03/08:30pm WSW 8 14 - - - - - - - 10.4 1016.0 0.0
03/08:00pm W 8 13 - - - - - - - 10.0 1016.0 0.0
03/07:30pm WSW 6 10 - - - - - - - 10.0 1016.0 0.0
03/07:00pm W 8 17 - - - - - - - 9.7 1016.0 0.0
03/06:30pm WSW 8 13 - - - - - - - 9.8 1016.1 0.0
03/06:00pm WSW 8 15 - - - - - - - 10.2 1016.0 0.0
03/05:30pm SW 10 16 - - - - - - - 10.5 1016.0 0.0
03/05:00pm SW 9 14 - - - - - - - 10.7 1016.1 0.0
03/04:30pm SW 12 17 - - - - - - - 10.7 1016.1 0.0
03/04:00pm SW 9 15 - - - - - - - 10.9 1016.2 0.0
03/03:30pm SW 11 18 - - - - - - - 11.5 1016.3 0.0
03/03:00pm SSW 12 21 - - - - - - - 11.6 1016.3 0.0
03/02:30pm SW 12 20 - - - - - - - 11.8 1016.3 0.0
03/02:00pm SW 10 16 - - - - - - - 12.6 1016.5 0.0
03/01:30pm WSW 9 16 - - - - - - - 12.2 1016.8 0.0
03/01:00pm SW 9 16 - - - - - - - 12.3 1017.2 0.0
03/12:30pm SW 8 14 - - - - - - - 12.9 1017.6 0.0
03/12:00pm SW 9 14 - - - - - - - 12.9 1018.0 0.0
03/11:30am WSW 8 13 - - - - - - - 12.2 1018.2 0.0
03/11:00am SW 7 12 - - - - - - - 12.4 1018.5 0.0
03/10:30am SW 4 7 - - - - - - - 11.8 1018.7 0.0
03/10:00am SW 5 9 - - - - - - - 11.5 1018.9 0.0
03/09:30am W 5 7 - - - - - - Recent precip. 10.7 1019.1 0.4
03/09:00am SSW 3 6 - - - - - - - 10.6 1019.1 0.2
03/08:30am SW 2 3 - - - - - - - 10.4 1019.2 0.0
03/08:00am SW 2 5 - - - - - - - 10.2 1019.1 0.0
03/07:30am WSW 6 12 - - - - - - - 10.6 1019.2 0.0
03/07:00am WSW 4 7 - - - - - - - 11.7 1018.9 0.0
03/06:30am W 4 6 - - - - - - - 11.7 1018.9 0.0
03/06:00am WSW 5 9 - - - - - - - 11.7 1018.9 0.0
03/05:30am WSW 3 7 - - - - - - - 11.4 1019.2 0.0
03/05:00am WSW 3 5 - - - - - - - 10.7 1019.1 0.0
03/04:30am WSW 3 5 - - - - - - - 10.4 1019.2 0.0
03/04:00am WSW 3 7 - - - - - - - 10.8 1019.5 0.0
03/03:30am WSW 5 8 - - - - - - - 11.4 1019.7 0.0
03/03:00am WSW 3 6 - - - - - - - 11.1 1019.9 0.0
03/02:30am WSW 3 5 - - - - - - - 11.0 1020.2 0.0
03/02:00am WSW 5 8 - - - - - - - 11.4 1020.2 0.0
03/01:30am W 4 6 - - - - - - - 11.5 1020.3 0.0
03/01:00am WSW 3 5 - - - - - - - 11.2 1020.4 0.0
03/12:30am SW 3 4 - - - - - - - 10.8 1020.9 0.0
03/12:00am SW 4 5 - - - - - - - 10.9 1020.9 0.0
 
Date/Time
EST
Wind Sea
Height
m
Swell Vis
km
Cloud Weather Temp
°C
Press
hPa
Rain since
9am
mm
Dir  Spd
kts
Gust
kts
Height
m
Period
s
Dir
02/11:30pm SW 4 6 - - - - - - - 11.0 1021.0 0.0
02/11:00pm SW 4 5 - - - - - - - 10.9 1021.2 0.0
02/10:30pm SSW 5 6 - - - - - - - 10.6 1021.3 0.0
02/10:00pm SW 3 5 - - - - - - - 10.9 1021.5 0.0
02/09:30pm SSW 4 5 - - - - - - - 11.2 1021.6 0.0
02/09:00pm SSW 5 6 - - - - - - - 11.5 1021.7 0.0
02/08:30pm S 3 5 - - - - - - - 11.5 1021.7 0.0
02/08:00pm SSW 4 5 - - - - - - - 11.7 1021.8 0.0
02/07:30pm S 6 8 - - - - - - - 12.0 1021.7 0.0
02/07:00pm SSW 6 8 - - - - - - - 12.1 1021.5 0.0
02/06:30pm SSW 6 8 - - - - - - - 12.2 1021.5 0.0
02/06:00pm SSW 6 8 - - - - - - - 12.4 1021.3 0.0
02/05:30pm SSW 6 9 - - - - - - - 12.5 1021.1 0.0
02/05:00pm SSW 6 8 - - - - - - - 12.7 1021.2 0.0
02/04:30pm SSW 7 9 - - - - - - - 13.3 1021.0 0.0
02/04:00pm SSW 7 9 - - - - - - - 14.3 1020.9 0.0
02/03:30pm SW 6 8 - - - - - - - 14.6 1021.1 0.0
02/03:00pm SW 5 8 - - - - - - - 14.8 1021.1 0.0
02/02:30pm SW 5 8 - - - - - - - 15.0 1021.0 0.0
02/02:00pm SW 6 9 - - - - - - - 15.2 1021.1 0.0
02/01:30pm WSW 5 8 - - - - - - - 15.8 1021.4 0.0
02/01:00pm NNW 4 6 - - - - - - - 15.9 1021.7 0.0
02/12:30pm SSW 5 7 - - - - - - - 14.7 1022.2 0.0
02/12:00pm NW 4 7 - - - - - - - 14.8 1022.7 0.0
02/11:30am WNW 2 5 - - - - - - - 14.1 1023.0 0.0
02/11:00am NNE 5 7 - - - - - - - 14.0 1023.2 0.0
02/10:30am N 4 6 - - - - - - - 12.8 1023.4 0.0
02/10:00am WSW 3 3 - - - - - - - 11.9 1023.4 0.0
02/09:30am WSW 3 5 - - - - - - - 11.5 1023.4 0.0
02/09:00am WSW 2 3 - - - - - - - 10.7 1023.3 0.0
02/08:30am SW 2 3 - - - - - - - 9.7 1023.0 0.0
02/08:00am CALM 0 0 - - - - - - - 8.7 1022.5 0.0
02/07:30am CALM 0 0 - - - - - - - 8.6 1022.2 0.0
02/07:00am CALM 0 0 - - - - - - - 8.4 1022.1 0.0
02/06:30am CALM 0 0 - - - - - - - 8.6 1021.8 0.0
02/06:00am CALM 0 0 - - - - - - - 7.7 1021.5 0.0
02/05:30am CALM 0 0 - - - - - - - 7.1 1021.4 0.0
02/05:00am CALM 0 0 - - - - - - - 6.3 1021.3 0.0
02/04:30am CALM 0 0 - - - - - - - 4.8 1021.3 0.0
02/04:00am CALM 0 0 - - - - - - - 6.0 1021.3 0.0
02/03:30am CALM 0 0 - - - - - - - 5.0 1021.4 0.0
02/03:00am CALM 0 0 - - - - - - - 6.1 1021.4 0.0
02/02:30am CALM 0 0 - - - - - - - 6.7 1021.5 0.0
02/02:00am CALM 0 0 - - - - - - - 7.7 1021.6 0.0
02/01:30am CALM 0 0 - - - - - - - 9.2 1021.6 0.0
02/01:00am SW 2 2 - - - - - - - 11.1 1021.7 0.0
02/12:30am SW 3 4 - - - - - - - 12.2 1021.8 0.0
02/12:00am SW 2 3 - - - - - - - 12.1 1021.9 0.0
 
Date/Time
EST
Wind Sea
Height
m
Swell Vis
km
Cloud Weather Temp
°C
Press
hPa
Rain since
9am
mm
Dir  Spd
kts
Gust
kts
Height
m
Period
s
Dir
01/11:30pm SW 3 4 - - - - - - - 12.4 1021.8 0.0
01/11:00pm SW 2 4 - - - - - - - 12.3 1021.8 0.0
01/10:30pm WSW 2 2 - - - - - - - 10.4 1021.7 0.0
01/10:00pm WSW 2 3 - - - - - - - 9.6 1021.4 0.0

Other formats

Comma delimited format used in spreadsheet applications
http://www.bom.gov.au/fwo/IDV60701/IDV60701.95816.axf

JavaScript Object Notation format (JSON) in row-major order
http://www.bom.gov.au/fwo/IDV60701/IDV60701.95816.json

Data quality

Most of these data are generated automatically and are frequently updated. Quality checks on data are not normally performed. It is possible for incorrect values to appear. Refer to information at About Latest Weather Observations and please check the disclaimer before using these data.